Terminal Aerodrome Forecast
Issued by NWS Grand Rapids, MI

Home | Current Version | Previous Version | Text Only | Print | Product List | Glossary On
Versions: 1 2 3 4 5 6 7 8 9 10 11 12 13 14 15 16 17 18 19
000
FTUS43 KGRR 061136
TAFGRR
TAF
KGRR 061136Z 0612/0712 16008KT 4SM BR SCT250
     FM061400 19012G20KT P6SM SKC
     FM070100 19012KT P6SM SCT120 BKN250
     FM070900 21011KT 6SM -SHRA BR VCTS BKN025CB OVC050
     FM071100 28010KT 4SM -SHRA OVC015=

USA.gov is the U.S. government's official web portal to all federal, state and local government web resources and services.